Peachtree City, Georgia
Current Conditions -  °F | °C
As of 7:53 PM on Tuesday 21 Oct 2014 (Local Time) from KFFC Reporting Station
Clear Clear  
Wind Chill: 60°   Ceiling: Unl
Heat Index: 60°   Visibility: 10mi
Dew Point: 55°   Wind: 5mph
Humidity: 83%   Direction: 310°NW
Pressure: 29.99"   Gusts: NA
Location:  33.4°N, 84.59°W
Report Text: KFFC 212353Z AUTO 31004KT 10SM CLR 16/13 A2999 RMK AO2 SLP156 T01560128 10250 20156 53010
Loading
Personal Weather Stations






























Interactive Weather Map
Tropical Storm Tracking
New forecast layout! Learn more

10-Day Weather Forecast

Advertisements
Track Severe Weather on mobile